createdAt,value
2023-02-23T00:01:18.155Z,21.50
2023-02-23T00:04:07.817Z,21.13
2023-02-23T00:06:55.727Z,22.23
2023-02-23T00:09:44.037Z,23.20
2023-02-23T00:12:31.891Z,22.97
2023-02-23T00:15:19.798Z,20.97
2023-02-23T00:18:09.212Z,19.50
2023-02-23T00:20:58.986Z,19.83
2023-02-23T00:23:51.056Z,21.20
2023-02-23T00:26:41.003Z,20.80
2023-02-23T00:29:28.862Z,21.43
2023-02-23T00:32:19.793Z,22.27
2023-02-23T00:35:11.574Z,22.67
2023-02-23T00:38:00.750Z,22.83
2023-02-23T00:40:48.690Z,21.97
2023-02-23T00:43:38.080Z,24.10
2023-02-23T00:46:27.996Z,22.17
2023-02-23T00:49:16.538Z,21.47
2023-02-23T00:52:05.545Z,22.57
2023-02-23T00:54:55.898Z,22.13
2023-02-23T00:57:43.739Z,22.00
2023-02-23T01:00:31.849Z,21.97
2023-02-23T01:03:19.737Z,22.23
2023-02-23T01:06:09.923Z,20.93
2023-02-23T01:08:58.001Z,22.50
2023-02-23T01:11:47.206Z,21.50
2023-02-23T01:14:35.600Z,21.53
2023-02-23T01:17:23.438Z,22.30
2023-02-23T01:20:17.852Z,21.60
2023-02-23T01:23:07.439Z,20.67
2023-02-23T01:25:55.297Z,20.87
2023-02-23T01:28:44.487Z,22.07
2023-02-23T01:31:32.657Z,21.33
2023-02-23T01:34:22.405Z,21.87
2023-02-23T01:37:10.269Z,22.43
2023-02-23T01:39:58.090Z,21.80
2023-02-23T01:42:47.568Z,21.47
2023-02-23T01:45:38.890Z,21.90
2023-02-23T01:48:31.271Z,22.40
2023-02-23T01:51:24.110Z,21.93
2023-02-23T01:54:16.476Z,21.53
2023-02-23T01:57:05.801Z,22.93
2023-02-23T01:59:54.304Z,22.03
2023-02-23T02:02:43.449Z,22.97
2023-02-23T02:05:31.373Z,22.60
2023-02-23T02:08:20.960Z,21.70
2023-02-23T02:11:25.827Z,22.10
2023-02-23T02:14:17.010Z,22.03
2023-02-23T02:17:18.033Z,21.77
2023-02-23T02:20:32.963Z,21.80
2023-02-23T02:23:57.343Z,21.77
2023-02-23T02:26:55.053Z,21.23
2023-02-23T02:30:35.207Z,22.77
2023-02-23T02:33:49.298Z,21.90
2023-02-23T02:37:04.718Z,22.47
2023-02-23T02:40:16.033Z,22.77
2023-02-23T02:43:11.280Z,22.57
2023-02-23T02:46:05.776Z,22.30
2023-02-23T02:49:01.470Z,21.43
2023-02-23T02:51:54.795Z,20.77
2023-02-23T02:54:48.945Z,21.60
2023-02-23T02:57:37.794Z,21.70
2023-02-23T03:00:48.485Z,21.63
2023-02-23T03:03:56.884Z,20.77
2023-02-23T03:07:05.630Z,20.73
2023-02-23T03:10:17.218Z,21.90
2023-02-23T03:13:38.294Z,22.50
2023-02-23T03:16:50.325Z,20.97
2023-02-23T03:20:02.503Z,21.20
2023-02-23T03:23:15.441Z,22.53
2023-02-23T03:26:28.044Z,21.70
2023-02-23T03:29:39.090Z,21.57
2023-02-23T03:32:50.448Z,23.00
2023-02-23T03:36:06.419Z,21.17
2023-02-23T03:39:17.639Z,21.10
2023-02-23T03:42:29.700Z,20.63
2023-02-23T03:45:38.388Z,22.03
2023-02-23T03:48:45.561Z,21.17
2023-02-23T03:51:53.869Z,21.07
2023-02-23T03:55:04.750Z,20.77
2023-02-23T03:58:17.002Z,21.93
2023-02-23T04:01:24.749Z,20.43
2023-02-23T04:04:31.019Z,20.70
2023-02-23T04:07:38.066Z,20.73
2023-02-23T04:10:46.360Z,22.13
2023-02-23T04:13:37.662Z,20.33
2023-02-23T04:16:24.587Z,20.87
2023-02-23T04:19:12.696Z,21.17
2023-02-23T04:22:00.529Z,25.33
2023-02-23T04:24:49.452Z,24.90
2023-02-23T04:27:37.792Z,25.83
2023-02-23T04:30:28.392Z,22.80
2023-02-23T04:33:16.696Z,24.73
2023-02-23T04:36:04.952Z,23.43
2023-02-23T04:38:52.737Z,21.77
2023-02-23T04:41:40.620Z,21.60
2023-02-23T04:44:28.416Z,19.87
2023-02-23T04:47:18.058Z,19.20
2023-02-23T04:50:06.907Z,21.43
2023-02-23T04:52:54.703Z,22.70
2023-02-23T04:55:43.119Z,24.13
2023-02-23T04:58:30.965Z,26.57
2023-02-23T05:01:21.011Z,27.60
2023-02-23T05:04:10.388Z,26.17
2023-02-23T05:06:58.178Z,26.47
2023-02-23T05:09:46.032Z,30.40
2023-02-23T05:12:33.870Z,26.90
2023-02-23T05:15:22.420Z,26.10
2023-02-23T05:18:10.550Z,27.40
2023-02-23T05:21:05.362Z,27.40
2023-02-23T05:23:53.213Z,27.10
2023-02-23T05:26:41.035Z,26.20
2023-02-23T05:29:28.869Z,27.90
2023-02-23T05:32:16.761Z,26.73
2023-02-23T05:35:05.215Z,26.77
2023-02-23T05:37:54.339Z,23.77
2023-02-23T05:40:42.301Z,20.63
2023-02-23T05:43:30.091Z,19.33
2023-02-23T05:46:21.198Z,19.73
2023-02-23T05:49:10.766Z,20.63
2023-02-23T05:51:59.479Z,23.90
2023-02-23T05:54:50.757Z,25.30
2023-02-23T05:57:38.817Z,25.23
2023-02-23T06:00:26.767Z,25.23
2023-02-23T06:03:15.371Z,28.00
2023-02-23T06:06:03.279Z,27.73
2023-02-23T06:08:51.432Z,28.63
2023-02-23T06:11:40.635Z,28.67
2023-02-23T06:14:28.528Z,29.10
2023-02-23T06:17:16.289Z,26.97
2023-02-23T06:20:04.780Z,27.00
2023-02-23T06:22:52.587Z,27.07
2023-02-23T06:25:40.499Z,26.37
2023-02-23T06:28:29.954Z,27.13
2023-02-23T06:31:18.086Z,27.83
2023-02-23T06:34:06.090Z,29.17
2023-02-23T06:36:53.959Z,28.90
2023-02-23T06:39:41.770Z,27.67
2023-02-23T06:42:29.835Z,27.23
2023-02-23T06:45:20.227Z,28.17
2023-02-23T06:48:09.693Z,27.33
2023-02-23T06:50:59.753Z,24.47
2023-02-23T06:53:47.545Z,25.37
2023-02-23T06:56:35.512Z,23.07
2023-02-23T06:59:24.008Z,23.63
2023-02-23T07:02:14.242Z,23.60
2023-02-23T07:05:02.063Z,23.80
2023-02-23T07:07:52.071Z,23.17
2023-02-23T07:10:39.902Z,24.13
2023-02-23T07:13:27.717Z,25.30
2023-02-23T07:16:16.289Z,25.77
2023-02-23T07:19:05.942Z,26.93
2023-02-23T07:21:54.128Z,26.20
2023-02-23T07:24:41.993Z,27.80
2023-02-23T07:27:29.780Z,27.00
2023-02-23T07:30:19.452Z,28.20
2023-02-23T07:33:07.363Z,27.07
2023-02-23T07:35:56.519Z,26.93
2023-02-23T07:38:44.332Z,27.17
2023-02-23T07:41:32.257Z,26.57
2023-02-23T07:44:20.175Z,25.83
2023-02-23T07:47:08.289Z,25.30
2023-02-23T07:49:56.104Z,27.43
2023-02-23T07:52:46.352Z,26.37
2023-02-23T07:55:34.255Z,26.40
2023-02-23T07:58:22.090Z,25.13
2023-02-23T08:01:10.758Z,26.07
2023-02-23T08:03:58.729Z,26.70
2023-02-23T08:06:46.564Z,25.57
2023-02-23T08:09:35.737Z,26.50
2023-02-23T08:12:23.525Z,26.33
2023-02-23T08:15:12.230Z,25.77
2023-02-23T08:18:00.263Z,25.87
2023-02-23T08:20:48.106Z,25.97
2023-02-23T08:23:36.270Z,25.67
2023-02-23T08:26:25.953Z,25.17
2023-02-23T08:29:13.926Z,25.13
2023-02-23T08:32:04.072Z,26.30
2023-02-23T08:34:51.930Z,25.30
2023-02-23T08:37:40.407Z,26.27
2023-02-23T08:40:28.181Z,26.30
2023-02-23T08:43:17.451Z,27.17
2023-02-23T08:46:05.550Z,25.97
2023-02-23T08:48:53.446Z,28.43
2023-02-23T08:51:41.414Z,26.47
2023-02-23T08:54:29.366Z,25.77
2023-02-23T08:57:17.699Z,26.83
2023-02-23T09:00:13.997Z,26.10
2023-02-23T09:03:01.817Z,26.10
2023-02-23T09:05:50.167Z,24.37
2023-02-23T09:08:38.753Z,25.47
2023-02-23T09:11:26.686Z,25.07
2023-02-23T09:14:14.592Z,23.83
2023-02-23T09:17:04.112Z,23.60
2023-02-23T09:19:52.441Z,24.07
2023-02-23T09:22:40.552Z,24.33
2023-02-23T09:25:29.397Z,23.83
2023-02-23T09:28:19.898Z,23.73
2023-02-23T09:31:08.679Z,22.80
2023-02-23T09:33:57.918Z,24.83
2023-02-23T09:36:48.555Z,24.53
2023-02-23T09:39:38.966Z,24.83
2023-02-23T09:42:35.085Z,24.23
2023-02-23T09:45:37.502Z,24.73
2023-02-23T09:48:26.882Z,24.80
2023-02-23T09:51:19.649Z,24.40
2023-02-23T09:54:11.413Z,24.27
2023-02-23T09:57:03.504Z,24.63
2023-02-23T09:59:51.429Z,23.60
2023-02-23T10:02:45.819Z,24.93
2023-02-23T10:05:39.003Z,24.53
2023-02-23T10:08:49.673Z,23.47
2023-02-23T10:11:45.605Z,23.87
2023-02-23T10:14:53.836Z,22.40
2023-02-23T10:17:48.796Z,21.83
2023-02-23T10:20:44.278Z,21.87
2023-02-23T10:23:38.715Z,23.57
2023-02-23T10:26:31.916Z,22.30
2023-02-23T10:29:26.037Z,23.50
2023-02-23T10:32:22.448Z,23.03
2023-02-23T10:35:13.782Z,21.10
2023-02-23T10:38:03.092Z,21.43
2023-02-23T10:40:56.305Z,19.87
2023-02-23T10:43:44.189Z,21.47
2023-02-23T10:46:38.622Z,19.37
2023-02-23T10:49:33.272Z,18.97
2023-02-23T10:52:25.401Z,19.30
2023-02-23T10:55:24.579Z,18.67
2023-02-23T10:58:17.806Z,20.47
2023-02-23T11:01:06.599Z,20.73
2023-02-23T11:04:05.428Z,20.67
2023-02-23T11:07:08.748Z,20.37
2023-02-23T11:09:57.158Z,20.27
2023-02-23T11:12:45.021Z,19.83
2023-02-23T11:15:50.736Z,19.60
2023-02-23T11:18:40.737Z,19.10
2023-02-23T11:21:33.536Z,18.63
2023-02-23T11:24:26.070Z,18.90
2023-02-23T11:27:23.151Z,18.20
2023-02-23T11:30:13.761Z,15.67
2023-02-23T11:33:10.594Z,15.23
2023-02-23T11:35:59.999Z,15.03
2023-02-23T11:38:48.298Z,14.03
2023-02-23T11:41:37.410Z,14.57
2023-02-23T11:44:25.578Z,12.60
2023-02-23T11:47:18.926Z,13.50
2023-02-23T11:50:21.457Z,13.10
2023-02-23T11:53:16.288Z,14.60
2023-02-23T11:56:12.444Z,14.03
2023-02-23T11:59:03.114Z,13.87
2023-02-23T12:01:54.176Z,14.30
2023-02-23T12:04:47.439Z,12.73
2023-02-23T12:07:42.438Z,10.57
2023-02-23T12:10:35.674Z,8.73
2023-02-23T12:13:31.308Z,8.33
2023-02-23T12:16:23.246Z,6.83
2023-02-23T12:19:23.030Z,5.40
2023-02-23T12:22:15.153Z,5.13
2023-02-23T12:25:10.810Z,4.53
2023-02-23T12:28:18.144Z,4.40
2023-02-23T12:31:19.973Z,4.03
2023-02-23T12:34:15.206Z,3.83
2023-02-23T12:37:15.199Z,4.00
2023-02-23T12:40:18.728Z,3.97
2023-02-23T12:43:14.103Z,3.60
2023-02-23T12:46:10.169Z,3.73
2023-02-23T12:49:05.220Z,4.17
2023-02-23T12:51:56.608Z,4.77
2023-02-23T12:54:46.777Z,4.93
2023-02-23T12:57:42.561Z,4.77
2023-02-23T13:00:50.423Z,5.20
2023-02-23T13:04:17.304Z,4.63
2023-02-23T13:07:12.259Z,5.20
2023-02-23T13:10:08.428Z,5.03
2023-02-23T13:13:05.377Z,5.20
2023-02-23T13:16:02.089Z,5.80
2023-02-23T13:18:54.995Z,5.80
2023-02-23T13:21:48.421Z,6.43
2023-02-23T13:24:38.572Z,6.10
2023-02-23T13:27:31.481Z,5.70
2023-02-23T13:30:22.520Z,6.53
2023-02-23T13:33:34.990Z,6.13
2023-02-23T13:36:31.998Z,6.27
2023-02-23T13:39:36.492Z,6.67
2023-02-23T13:42:35.151Z,6.07
2023-02-23T13:45:46.135Z,6.40
2023-02-23T13:48:56.006Z,7.30
2023-02-23T13:51:48.806Z,8.00
2023-02-23T13:54:36.976Z,8.03
2023-02-23T13:57:26.268Z,9.23
2023-02-23T14:00:20.068Z,10.73
2023-02-23T14:03:22.629Z,9.07
2023-02-23T14:06:18.605Z,10.20
2023-02-23T14:09:11.770Z,10.23
2023-02-23T14:12:19.360Z,12.77
2023-02-23T14:15:41.193Z,12.00
2023-02-23T14:18:33.588Z,12.37
2023-02-23T14:21:31.194Z,11.60
2023-02-23T14:24:21.910Z,12.30
2023-02-23T14:27:40.389Z,10.80
2023-02-23T14:30:30.500Z,11.00
2023-02-23T14:33:39.332Z,10.97
2023-02-23T14:36:45.498Z,12.70
2023-02-23T14:39:35.620Z,12.30
2023-02-23T14:42:25.959Z,12.37
2023-02-23T14:45:20.504Z,11.87
2023-02-23T14:48:15.678Z,13.70
2023-02-23T14:51:24.239Z,13.10
2023-02-23T14:54:24.739Z,12.70
2023-02-23T14:57:19.954Z,12.67
2023-02-23T15:00:21.051Z,12.57
2023-02-23T15:03:13.585Z,13.00
2023-02-23T15:06:02.282Z,11.77
2023-02-23T15:08:51.573Z,12.00
2023-02-23T15:11:39.475Z,12.63
2023-02-23T15:14:28.637Z,10.77
2023-02-23T15:17:20.701Z,9.50
2023-02-23T15:20:16.591Z,9.90
2023-02-23T15:23:06.718Z,9.50
2023-02-23T15:25:56.084Z,9.70
2023-02-23T15:28:45.472Z,9.17
2023-02-23T15:31:34.794Z,8.50
2023-02-23T15:34:26.381Z,8.33
2023-02-23T15:37:21.085Z,8.30
2023-02-23T15:40:14.817Z,8.00
2023-02-23T15:43:04.575Z,7.77
2023-02-23T15:45:55.406Z,7.00
2023-02-23T15:48:47.007Z,7.10
2023-02-23T15:51:38.542Z,6.53
2023-02-23T15:54:30.678Z,7.73
2023-02-23T15:57:23.912Z,7.57
2023-02-23T16:00:32.710Z,8.57
2023-02-23T16:03:26.477Z,9.33
2023-02-23T16:06:24.516Z,9.70
2023-02-23T16:09:25.958Z,9.83
2023-02-23T16:12:18.300Z,12.70
2023-02-23T16:15:21.081Z,11.03
2023-02-23T16:18:17.019Z,10.77
2023-02-23T16:21:06.496Z,10.67
2023-02-23T16:24:01.081Z,10.33
2023-02-23T16:26:51.855Z,9.87
2023-02-23T16:29:42.388Z,10.00
2023-02-23T16:32:37.212Z,11.50
2023-02-23T16:35:26.666Z,11.90
2023-02-23T16:38:16.631Z,12.27
2023-02-23T16:41:06.609Z,12.57
2023-02-23T16:43:56.408Z,13.43
2023-02-23T16:47:12.780Z,14.07
2023-02-23T16:50:04.895Z,13.93
2023-02-23T16:53:00.342Z,13.60
2023-02-23T16:55:52.211Z,12.80
2023-02-23T16:58:40.729Z,12.37
2023-02-23T17:01:28.556Z,12.53
2023-02-23T17:04:18.699Z,11.63
2023-02-23T17:07:06.617Z,11.23
2023-02-23T17:09:55.764Z,10.77
2023-02-23T17:12:47.685Z,10.40
2023-02-23T17:15:37.042Z,10.07
2023-02-23T17:18:27.332Z,9.27
2023-02-23T17:21:15.769Z,9.07
2023-02-23T17:24:04.186Z,7.80
2023-02-23T17:26:53.418Z,7.53
2023-02-23T17:29:41.526Z,7.13
2023-02-23T17:32:29.905Z,6.53
2023-02-23T17:35:18.583Z,6.50
2023-02-23T17:38:08.374Z,6.97
2023-02-23T17:40:56.202Z,6.53
2023-02-23T17:43:45.486Z,6.10
2023-02-23T17:46:33.470Z,6.20
2023-02-23T17:49:21.306Z,6.37
2023-02-23T17:52:09.088Z,6.23
2023-02-23T17:54:58.386Z,5.80
2023-02-23T17:57:47.571Z,5.40
2023-02-23T18:00:38.831Z,5.23
2023-02-23T18:03:32.018Z,5.23
2023-02-23T18:06:20.393Z,5.17
2023-02-23T18:09:08.318Z,5.23
2023-02-23T18:11:56.400Z,4.70
2023-02-23T18:14:45.465Z,4.73
2023-02-23T18:17:37.141Z,4.77
2023-02-23T18:20:25.663Z,5.97
2023-02-23T18:23:13.483Z,6.10
2023-02-23T18:26:08.378Z,6.13
2023-02-23T18:28:56.931Z,5.20
2023-02-23T18:31:44.884Z,5.00
2023-02-23T18:34:35.765Z,5.07
2023-02-23T18:37:28.716Z,4.20
2023-02-23T18:40:21.424Z,4.73
2023-02-23T18:43:10.944Z,4.53
2023-02-23T18:45:59.620Z,4.63
2023-02-23T18:48:50.557Z,5.00
2023-02-23T18:51:41.178Z,4.73
2023-02-23T18:54:30.221Z,4.60
2023-02-23T18:57:18.076Z,5.17
2023-02-23T19:00:11.779Z,4.30
2023-02-23T19:03:00.036Z,3.77
2023-02-23T19:05:52.803Z,4.63
2023-02-23T19:08:42.246Z,4.60
2023-02-23T19:11:32.195Z,4.43
2023-02-23T19:14:32.848Z,4.30
2023-02-23T19:17:30.560Z,4.60
2023-02-23T19:20:18.968Z,5.10
2023-02-23T19:23:07.967Z,5.03
2023-02-23T19:25:58.840Z,4.60
2023-02-23T19:28:47.090Z,5.00
2023-02-23T19:31:37.111Z,4.80
2023-02-23T19:34:25.448Z,4.40
2023-02-23T19:37:13.923Z,4.70
2023-02-23T19:40:03.695Z,5.50
2023-02-23T19:42:53.280Z,5.30
2023-02-23T19:45:46.005Z,5.47
2023-02-23T19:48:33.914Z,4.60
2023-02-23T19:51:22.351Z,5.53
2023-02-23T19:54:11.506Z,5.00
2023-02-23T19:56:59.370Z,5.00
2023-02-23T19:59:48.528Z,5.40
2023-02-23T20:02:42.666Z,5.70
2023-02-23T20:05:31.317Z,5.00
2023-02-23T20:08:19.413Z,5.00
2023-02-23T20:11:08.249Z,5.47
2023-02-23T20:13:57.660Z,5.60
2023-02-23T20:16:46.945Z,5.73
2023-02-23T20:19:34.932Z,5.50
2023-02-23T20:22:22.756Z,5.43
2023-02-23T20:25:16.438Z,5.53
2023-02-23T20:28:07.858Z,5.73
2023-02-23T20:30:55.776Z,6.10
2023-02-23T20:33:45.060Z,5.40
2023-02-23T20:36:34.344Z,5.40
2023-02-23T20:39:24.216Z,6.27
2023-02-23T20:42:12.456Z,5.93
2023-02-23T20:45:00.286Z,5.40
2023-02-23T20:47:51.887Z,5.50
2023-02-23T20:50:42.418Z,5.63
2023-02-23T20:53:30.996Z,5.70
2023-02-23T20:56:22.141Z,5.93
2023-02-23T20:59:11.161Z,5.63
2023-02-23T21:02:01.510Z,5.63
2023-02-23T21:04:49.348Z,6.30
2023-02-23T21:07:38.737Z,6.70
2023-02-23T21:10:29.452Z,6.53
2023-02-23T21:13:18.644Z,6.33
2023-02-23T21:16:07.265Z,6.63
2023-02-23T21:19:03.902Z,6.80
2023-02-23T21:21:57.760Z,7.97
2023-02-23T21:24:46.953Z,7.10
2023-02-23T21:27:34.824Z,8.20
2023-02-23T21:30:28.555Z,8.73
2023-02-23T21:33:16.838Z,8.23
2023-02-23T21:36:05.268Z,10.07
2023-02-23T21:38:53.044Z,9.80
2023-02-23T21:41:42.223Z,9.40
2023-02-23T21:44:30.284Z,9.90
2023-02-23T21:47:18.166Z,10.47
2023-02-23T21:50:10.195Z,10.17
2023-02-23T21:52:58.265Z,9.53
2023-02-23T21:55:46.090Z,11.03
2023-02-23T21:58:35.285Z,11.67
2023-02-23T22:01:25.868Z,10.83
2023-02-23T22:04:15.913Z,11.40
2023-02-23T22:07:03.762Z,10.70
2023-02-23T22:09:51.675Z,10.67
2023-02-23T22:12:39.528Z,10.57
2023-02-23T22:15:28.696Z,10.20
2023-02-23T22:18:17.728Z,10.50
2023-02-23T22:21:05.838Z,10.40
2023-02-23T22:23:54.131Z,9.73
2023-02-23T22:26:50.228Z,9.07
2023-02-23T22:29:38.099Z,8.80
2023-02-23T22:32:28.717Z,8.93
2023-02-23T22:35:17.004Z,8.67
2023-02-23T22:38:05.152Z,8.60
2023-02-23T22:40:54.469Z,8.50
2023-02-23T22:43:45.708Z,7.53
2023-02-23T22:46:33.543Z,7.70
2023-02-23T22:49:22.681Z,7.90
2023-02-23T22:52:10.473Z,7.00
2023-02-23T22:54:58.298Z,7.53
2023-02-23T22:57:47.616Z,7.80
2023-02-23T23:00:36.116Z,7.90
2023-02-23T23:03:27.160Z,7.07
2023-02-23T23:06:21.942Z,7.37
2023-02-23T23:09:11.772Z,6.90
2023-02-23T23:11:59.601Z,7.17
2023-02-23T23:14:47.591Z,6.70
2023-02-23T23:17:35.440Z,7.17
2023-02-23T23:20:25.547Z,6.50
2023-02-23T23:23:14.929Z,7.27
2023-02-23T23:26:02.711Z,7.33
2023-02-23T23:28:53.072Z,7.13
2023-02-23T23:31:45.313Z,6.93
2023-02-23T23:34:34.424Z,7.07
2023-02-23T23:37:22.560Z,6.73
2023-02-23T23:40:16.171Z,6.23
2023-02-23T23:43:07.488Z,6.27
2023-02-23T23:45:57.701Z,6.30
2023-02-23T23:48:45.805Z,6.70
2023-02-23T23:51:37.410Z,6.93
2023-02-23T23:54:27.348Z,6.93
2023-02-23T23:57:17.452Z,7.20
